Time;durP1;ratioP1;P1;durP2;ratioP2;P2;SDS_P1;SDS_P2;PMS_P1;PMS_P2;Temp;Humidity;BMP_temperature;BMP_pressure;BME280_temperature;BME280_humidity;BME280_pressure;Samples;Min_cycle;Max_cycle;Signal;HPM_P1;HPM_P2
2024/01/03 00:00:23;;;;;;;13.83;5.77;;;1.30;99.90;0.30;98509;;;;569137;250;24125;-79
2024/01/03 00:02:53;;;;;;;10.07;4.90;;;1.30;99.90;0.30;98501;;;;560031;252;24122;-78
2024/01/03 00:05:24;;;;;;;33.90;16.47;;;1.30;99.90;0.30;98497;;;;559949;252;24131;-79
2024/01/03 00:07:55;;;;;;;30.40;17.70;;;1.30;99.90;0.20;98496;;;;550415;253;24133;-78
2024/01/03 00:10:47;;;;;;;36.30;19.70;;;1.20;99.90;0.20;98484;;;;550410;257;24124;-79
2024/01/03 00:13:33;;;;;;;34.70;17.50;;;1.20;99.90;0.20;98475;;;;568932;250;24107;-77
2024/01/03 00:16:06;;;;;;;31.03;18.93;;;1.20;99.90;0.10;98483;;;;568541;250;25137;-76
2024/01/03 00:18:39;;;;;;;36.13;18.83;;;1.20;99.90;0.10;98466;;;;567845;252;24130;-78
2024/01/03 00:21:06;;;;;;;35.37;16.80;;;1.20;99.90;0.10;98471;;;;551607;257;25155;-79
2024/01/03 00:23:37;;;;;;;35.93;18.03;;;1.10;99.90;0.10;98461;;;;567626;250;24108;-79
2024/01/03 00:26:11;;;;;;;42.07;19.63;;;1.10;99.90;0.00;98459;;;;552504;257;24117;-79
2024/01/03 00:28:38;;;;;;;31.90;16.10;;;1.10;99.90;0.10;98459;;;;562040;252;24116;-78
2024/01/03 00:31:06;;;;;;;34.87;19.47;;;1.10;99.90;0.00;98443;;;;560083;252;24135;-78
2024/01/03 00:33:34;;;;;;;38.83;19.23;;;1.10;99.90;0.00;98461;;;;559792;252;24168;-77
2024/01/03 00:36:03;;;;;;;45.17;18.43;;;1.00;99.90;0.00;98446;;;;562166;247;24112;-79
2024/01/03 00:38:31;;;;;;;45.13;19.80;;;1.00;99.90;0.10;98450;;;;568321;250;24195;-79
2024/01/03 00:40:59;;;;;;;35.97;17.43;;;1.10;99.90;0.10;98447;;;;561243;252;24131;-78
2024/01/03 00:43:27;;;;;;;34.13;18.53;;;1.10;99.90;0.00;98445;;;;567780;250;24113;-79
2024/01/03 00:45:55;;;;;;;31.97;17.07;;;1.00;99.90;0.00;98446;;;;568193;250;24117;-79
2024/01/03 00:48:23;;;;;;;33.67;17.73;;;1.00;99.90;0.00;98441;;;;562428;250;24155;-79
2024/01/03 00:50:51;;;;;;;39.67;20.50;;;1.00;99.90;0.00;98428;;;;562495;252;24128;-79
2024/01/03 00:53:19;;;;;;;38.37;19.63;;;1.00;99.90;0.00;98433;;;;568598;247;25144;-79
2024/01/03 00:55:51;;;;;;;37.73;18.70;;;1.00;99.90;0.00;98434;;;;568550;250;25227;-79
2024/01/03 00:58:16;;;;;;;34.07;19.03;;;1.00;99.90;0.00;98429;;;;568567;247;24128;-78
2024/01/03 01:00:46;;;;;;;42.97;17.70;;;1.00;99.90;0.00;98423;;;;569374;247;24112;-78
2024/01/03 01:03:11;;;;;;;37.07;18.87;;;1.00;99.90;0.00;98411;;;;559917;252;24116;-79
2024/01/03 01:05:43;;;;;;;35.33;19.90;;;1.00;99.90;0.00;98414;;;;569165;250;24135;-79
2024/01/03 01:08:08;;;;;;;37.77;18.07;;;1.00;99.90;0.00;98420;;;;559796;252;24143;-79
2024/01/03 01:10:36;;;;;;;38.83;19.17;;;1.00;99.90;-0.10;98410;;;;568641;250;24159;-79
2024/01/03 01:13:04;;;;;;;32.43;17.03;;;1.00;99.90;0.00;98411;;;;568806;250;24133;-79
2024/01/03 01:15:32;;;;;;;30.77;17.90;;;1.00;99.90;0.00;98406;;;;558944;252;24149;-79
2024/01/03 01:18:00;;;;;;;32.50;18.00;;;1.00;99.90;0.00;98402;;;;568836;247;24110;-80
2024/01/03 01:20:28;;;;;;;31.27;16.97;;;1.00;99.90;0.00;98395;;;;568958;250;24119;-80
2024/01/03 01:22:56;;;;;;;30.00;16.97;;;1.00;99.90;0.00;98384;;;;568819;250;24097;-79
2024/01/03 01:25:25;;;;;;;33.70;16.93;;;1.00;99.90;-0.10;98389;;;;568843;250;24114;-79
2024/01/03 01:27:53;;;;;;;35.20;18.60;;;1.00;99.90;-0.10;98376;;;;568569;250;24110;-79
2024/01/03 01:30:21;;;;;;;30.53;15.93;;;0.90;99.90;-0.10;98372;;;;559243;252;24181;-79
2024/01/03 01:32:50;;;;;;;26.57;16.83;;;0.90;99.90;-0.10;98378;;;;569410;250;24120;-79
2024/01/03 01:35:17;;;;;;;29.23;16.07;;;0.90;99.90;-0.10;98376;;;;568492;250;24101;-78
2024/01/03 01:37:46;;;;;;;32.17;17.07;;;0.90;99.90;-0.10;98368;;;;568133;250;24123;-79
2024/01/03 01:40:13;;;;;;;27.47;15.67;;;0.90;99.90;-0.10;98374;;;;568598;250;25124;-79
2024/01/03 01:42:48;;;;;;;28.97;16.00;;;0.90;99.90;-0.10;98359;;;;568220;248;24167;-79
2024/01/03 01:45:12;;;;;;;30.90;17.87;;;0.90;99.90;-0.10;98358;;;;559259;252;24130;-79
2024/01/03 01:47:41;;;;;;;25.33;15.03;;;0.90;99.90;-0.10;98350;;;;568653;248;24195;-79
2024/01/03 01:50:12;;;;;;;31.07;17.70;;;0.90;99.90;-0.10;98348;;;;568204;250;24125;-77
2024/01/03 01:52:39;;;;;;;26.17;17.57;;;0.90;99.90;-0.10;98340;;;;559585;252;24133;-78
2024/01/03 01:55:08;;;;;;;28.27;16.63;;;0.90;99.90;-0.10;98338;;;;568913;248;24123;-78
2024/01/03 01:57:32;;;;;;;25.80;15.63;;;0.90;99.90;-0.10;98329;;;;560349;252;24179;-79
2024/01/03 02:00:00;;;;;;;29.60;17.10;;;0.90;99.90;-0.10;98335;;;;559935;252;24115;-78
2024/01/03 02:02:28;;;;;;;29.17;16.27;;;0.90;99.90;-0.20;98334;;;;568284;251;24109;-78
2024/01/03 02:04:56;;;;;;;26.27;17.37;;;0.90;99.90;-0.30;98322;;;;568328;252;24124;-78
2024/01/03 02:07:25;;;;;;;26.83;14.63;;;0.80;99.90;-0.20;98322;;;;559827;252;24132;-78
2024/01/03 02:09:53;;;;;;;28.07;16.87;;;0.80;99.90;-0.20;98314;;;;569489;250;24131;-78
2024/01/03 02:12:29;;;;;;;27.43;16.07;;;0.80;99.90;-0.20;98319;;;;569437;249;24145;-79
2024/01/03 02:14:56;;;;;;;30.20;16.67;;;0.80;99.90;-0.20;98316;;;;560985;252;24115;-79
2024/01/03 02:17:24;;;;;;;29.03;17.00;;;0.80;99.90;-0.30;98291;;;;569361;247;24094;-79
2024/01/03 02:19:53;;;;;;;28.37;16.00;;;0.80;99.90;-0.30;98299;;;;560259;252;24126;-78
2024/01/03 02:22:22;;;;;;;26.40;14.70;;;0.80;99.90;-0.30;98302;;;;569088;250;24167;-79
2024/01/03 02:24:50;;;;;;;31.10;16.07;;;0.70;99.90;-0.30;98299;;;;569110;250;24112;-79
2024/01/03 02:27:18;;;;;;;32.97;16.73;;;0.70;99.90;-0.30;98291;;;;568185;250;24150;-79
2024/01/03 02:29:45;;;;;;;30.97;16.23;;;0.70;99.90;-0.30;98290;;;;568006;250;24119;-79
2024/01/03 02:32:13;;;;;;;31.63;16.27;;;0.70;99.90;-0.30;98284;;;;559126;252;24193;-79
2024/01/03 02:34:41;;;;;;;29.63;15.33;;;0.70;99.90;-0.30;98284;;;;568534;250;24103;-79
2024/01/03 02:37:10;;;;;;;29.77;16.53;;;0.70;99.90;-0.30;98274;;;;568479;247;24154;-78
2024/01/03 02:39:38;;;;;;;27.03;16.47;;;0.70;99.90;-0.30;98272;;;;559646;250;24110;-79
2024/01/03 02:42:06;;;;;;;26.93;15.40;;;0.70;99.90;-0.30;98269;;;;568445;250;24123;-78
2024/01/03 02:44:34;;;;;;;28.30;16.10;;;0.70;99.90;-0.40;98272;;;;568029;250;24120;-78
2024/01/03 02:47:02;;;;;;;23.93;13.63;;;0.70;99.90;-0.30;98269;;;;568193;250;24132;-77
2024/01/03 02:49:30;;;;;;;24.73;14.93;;;0.70;99.90;-0.40;98287;;;;568570;250;24119;-77
2024/01/03 02:52:00;;;;;;;26.43;14.43;;;0.70;99.90;-0.40;98256;;;;568503;250;24133;-77
2024/01/03 02:54:26;;;;;;;26.30;14.83;;;0.60;99.90;-0.40;98262;;;;568115;246;24098;-78
2024/01/03 02:56:54;;;;;;;27.33;14.53;;;0.60;99.90;-0.50;98266;;;;568581;250;25134;-78
2024/01/03 02:59:22;;;;;;;25.23;13.77;;;0.60;99.90;-0.50;98258;;;;568617;250;25169;-78
2024/01/03 03:01:53;;;;;;;27.53;14.90;;;0.60;99.90;-0.50;98248;;;;559322;252;24117;-79
2024/01/03 03:04:19;;;;;;;22.13;14.23;;;0.50;99.90;-0.60;98242;;;;568562;252;25196;-79
2024/01/03 03:06:46;;;;;;;28.77;14.77;;;0.50;99.90;-0.60;98236;;;;568112;250;24216;-79
2024/01/03 03:09:14;;;;;;;24.03;13.57;;;0.50;99.90;-0.60;98248;;;;567837;250;24090;-78
2024/01/03 03:11:42;;;;;;;23.57;14.80;;;0.50;99.90;-0.60;98229;;;;568182;250;24109;-78
2024/01/03 03:14:10;;;;;;;27.27;14.27;;;0.50;99.90;-0.60;98230;;;;568372;247;24128;-79
2024/01/03 03:16:38;;;;;;;28.73;16.37;;;0.40;99.90;-0.70;98222;;;;568242;250;24106;-78
2024/01/03 03:19:10;;;;;;;25.97;15.30;;;0.40;99.90;-0.60;98223;;;;568558;247;25179;-79
2024/01/03 03:21:35;;;;;;;29.43;14.87;;;0.40;99.90;-0.70;98219;;;;569108;251;24117;-79
2024/01/03 03:24:03;;;;;;;26.83;15.23;;;0.40;99.90;-0.70;98217;;;;569157;249;24174;-77
2024/01/03 03:26:30;;;;;;;29.00;15.37;;;0.40;99.90;-0.60;98218;;;;560769;252;24134;-78
2024/01/03 03:28:58;;;;;;;26.87;14.93;;;0.40;99.90;-0.60;98228;;;;568936;250;24122;-78
2024/01/03 03:31:26;;;;;;;24.57;14.23;;;0.40;99.90;-0.60;98212;;;;568598;250;24143;-79
2024/01/03 03:33:55;;;;;;;27.37;15.17;;;0.40;99.90;-0.60;98210;;;;559915;252;24132;-79
2024/01/03 03:36:24;;;;;;;29.13;15.63;;;0.40;99.90;-0.70;98201;;;;568693;250;24136;-79
2024/01/03 03:38:52;;;;;;;24.97;14.83;;;0.40;99.90;-0.70;98205;;;;568667;250;24165;-79
2024/01/03 03:41:19;;;;;;;24.57;14.47;;;0.40;99.90;-0.70;98194;;;;568473;247;24128;-78
2024/01/03 03:43:47;;;;;;;26.67;15.83;;;0.40;99.90;-0.70;98198;;;;568605;250;24097;-79
2024/01/03 03:46:15;;;;;;;27.60;15.77;;;0.40;99.90;-0.70;98198;;;;568521;250;24124;-80
2024/01/03 03:48:43;;;;;;;23.67;13.83;;;0.40;99.90;-0.70;98207;;;;559930;252;24149;-80
2024/01/03 03:51:12;;;;;;;26.30;14.73;;;0.40;99.90;-0.70;98188;;;;568820;250;24123;-79
2024/01/03 03:53:40;;;;;;;23.33;14.53;;;0.40;99.90;-0.70;98195;;;;568847;250;24185;-79
2024/01/03 03:56:08;;;;;;;27.23;14.47;;;0.40;99.90;-0.70;98176;;;;568347;250;24111;-80
2024/01/03 03:58:36;;;;;;;26.07;14.33;;;0.40;99.90;-0.60;98169;;;;560401;252;24137;-80
2024/01/03 04:01:04;;;;;;;21.03;13.30;;;0.40;99.90;-0.70;98170;;;;568638;250;24147;-80
2024/01/03 04:03:31;;;;;;;25.07;14.40;;;0.40;99.90;-0.70;98176;;;;559484;252;24121;-79
2024/01/03 04:06:00;;;;;;;25.77;13.77;;;0.40;99.90;-0.70;98168;;;;568189;247;24102;-80
2024/01/03 04:08:29;;;;;;;26.77;14.57;;;0.40;99.90;-0.60;98170;;;;559840;252;24140;-80
2024/01/03 04:10:57;;;;;;;26.70;13.73;;;0.40;99.90;-0.70;98176;;;;567696;250;24105;-81
2024/01/03 04:13:25;;;;;;;24.30;13.40;;;0.40;99.90;-0.70;98167;;;;568400;247;24131;-81
2024/01/03 04:15:53;;;;;;;22.07;13.37;;;0.40;99.90;-0.70;98161;;;;559870;252;24126;-81
2024/01/03 04:18:20;;;;;;;21.27;13.07;;;0.40;99.90;-0.70;98162;;;;568646;250;25169;-81
2024/01/03 04:20:48;;;;;;;25.23;13.37;;;0.40;99.90;-0.70;98162;;;;568868;247;24147;-82
2024/01/03 04:23:17;;;;;;;24.70;13.53;;;0.40;99.90;-0.60;98156;;;;560434;252;24133;-80
2024/01/03 04:25:45;;;;;;;22.47;13.10;;;0.40;99.90;-0.70;98151;;;;568981;250;24139;-80
2024/01/03 04:28:13;;;;;;;26.23;13.33;;;0.40;99.90;-0.60;98158;;;;560177;252;24153;-80
2024/01/03 04:30:41;;;;;;;28.57;14.60;;;0.40;99.90;-0.70;98153;;;;569004;250;24093;-79
2024/01/03 04:33:09;;;;;;;22.10;13.03;;;0.40;99.90;-0.70;98156;;;;571170;248;24127;-80
2024/01/03 04:35:37;;;;;;;24.83;12.93;;;0.40;99.90;-0.70;98156;;;;561673;252;24107;-80
2024/01/03 04:38:04;;;;;;;25.30;11.70;;;0.40;99.90;-0.70;98150;;;;570685;249;24096;-80
2024/01/03 04:40:35;;;;;;;23.50;12.10;;;0.40;99.90;-0.70;98149;;;;570112;250;24116;-80
2024/01/03 04:43:01;;;;;;;21.93;11.73;;;0.40;99.90;-0.70;98146;;;;568431;250;24140;-80
2024/01/03 04:45:29;;;;;;;24.40;12.20;;;0.40;99.90;-0.70;98155;;;;568883;247;24146;-81
2024/01/03 04:47:57;;;;;;;19.33;10.63;;;0.40;99.90;-0.70;98151;;;;568721;250;24122;-79
2024/01/03 04:50:25;;;;;;;17.47;9.77;;;0.40;99.90;-0.70;98137;;;;568961;250;24118;-82
2024/01/03 04:52:53;;;;;;;15.17;8.90;;;0.40;99.90;-0.70;98143;;;;569239;250;24123;-80
2024/01/03 04:55:21;;;;;;;18.63;9.60;;;0.40;99.90;-0.70;98142;;;;568591;248;24107;-81
2024/01/03 04:57:49;;;;;;;19.70;10.13;;;0.40;99.90;-0.70;98141;;;;569096;250;24152;-81
2024/01/03 05:00:20;;;;;;;17.07;9.50;;;0.40;99.90;-0.80;98137;;;;569162;247;24133;-82
2024/01/03 05:02:44;;;;;;;17.83;8.80;;;0.30;99.90;-0.70;98136;;;;560196;252;24127;-82
2024/01/03 05:05:12;;;;;;;15.53;8.80;;;0.30;99.90;-0.80;98139;;;;559597;252;24119;-81
2024/01/03 05:07:40;;;;;;;19.17;10.47;;;0.30;99.90;-0.80;98145;;;;560125;252;24153;-80
2024/01/03 05:10:11;;;;;;;18.40;8.80;;;0.30;99.90;-0.80;98129;;;;568703;247;24116;-80
2024/01/03 05:12:40;;;;;;;14.57;9.33;;;0.30;99.90;-0.80;98135;;;;562199;252;24101;-81
2024/01/03 05:15:07;;;;;;;14.03;8.27;;;0.30;99.90;-0.80;98131;;;;568837;250;24113;-82
2024/01/03 05:17:35;;;;;;;11.73;7.40;;;0.30;99.90;-0.80;98136;;;;560344;252;24132;-83
2024/01/03 05:20:06;;;;;;;16.77;7.90;;;0.30;99.90;-0.80;98133;;;;568777;250;24113;-81
2024/01/03 05:22:32;;;;;;;12.70;8.50;;;0.30;99.90;-0.80;98133;;;;568091;248;24133;-81
2024/01/03 05:24:59;;;;;;;12.07;7.47;;;0.30;99.90;-0.80;98135;;;;568486;250;24093;-83
2024/01/03 05:27:30;;;;;;;13.63;6.47;;;0.30;99.90;-0.80;98138;;;;559516;252;24116;-81
2024/01/03 05:29:55;;;;;;;13.80;7.40;;;0.30;99.90;-0.80;98128;;;;559698;252;24145;-82
2024/01/03 05:32:23;;;;;;;16.50;7.67;;;0.30;99.90;-0.80;98130;;;;568481;250;24094;-82
2024/01/03 05:34:51;;;;;;;15.60;7.30;;;0.30;99.90;-0.80;98132;;;;568805;250;24112;-82
2024/01/03 05:37:22;;;;;;;15.53;8.27;;;0.30;99.90;-0.80;98135;;;;560182;252;24121;-81
2024/01/03 05:39:47;;;;;;;11.57;6.47;;;0.30;99.90;-0.80;98129;;;;560191;252;24131;-82
2024/01/03 05:42:18;;;;;;;8.73;5.33;;;0.20;99.90;-0.80;98124;;;;569444;247;24108;-82
2024/01/03 05:44:43;;;;;;;9.07;5.60;;;0.30;99.90;-0.90;98129;;;;569803;251;24147;-82
2024/01/03 05:47:11;;;;;;;11.93;6.97;;;0.20;99.90;-0.80;98124;;;;570394;246;24229;-81
2024/01/03 05:49:42;;;;;;;11.10;6.17;;;0.20;99.90;-0.80;98132;;;;569238;250;24125;-83
2024/01/03 05:52:08;;;;;;;8.17;5.33;;;0.20;99.90;-0.80;98119;;;;560555;252;24142;-80
2024/01/03 05:54:35;;;;;;;10.07;6.30;;;0.20;99.90;-0.90;98129;;;;569207;247;24130;-82
2024/01/03 05:57:06;;;;;;;8.77;4.93;;;0.20;99.90;-0.90;98127;;;;569073;250;24157;-81
2024/01/03 05:59:31;;;;;;;7.27;4.50;;;0.20;99.90;-0.90;98119;;;;560134;252;24124;-82
2024/01/03 06:01:59;;;;;;;9.57;5.87;;;0.20;99.90;-0.90;98126;;;;568949;250;24116;-81
2024/01/03 06:04:31;;;;;;;17.47;6.53;;;0.20;99.90;-0.90;98128;;;;568660;248;24116;-82
2024/01/03 06:06:55;;;;;;;11.07;6.37;;;0.20;99.90;-0.90;98120;;;;561926;252;24156;-81
2024/01/03 06:09:27;;;;;;;10.43;5.00;;;0.20;99.90;-0.90;98121;;;;569183;248;24116;-81
2024/01/03 06:11:52;;;;;;;4.97;3.23;;;0.20;99.90;-0.90;98119;;;;568608;251;24190;-82
2024/01/03 06:14:19;;;;;;;6.13;4.23;;;0.20;99.90;-0.90;98119;;;;560286;252;24141;-81
2024/01/03 06:16:47;;;;;;;4.00;3.43;;;0.20;99.90;-0.90;98118;;;;569324;250;24161;-82
2024/01/03 06:19:15;;;;;;;5.60;4.27;;;0.20;99.90;-0.90;98125;;;;568851;248;24142;-82
2024/01/03 06:21:43;;;;;;;11.30;4.43;;;0.20;99.90;-0.90;98128;;;;567988;250;24117;-82
2024/01/03 06:24:11;;;;;;;7.13;5.27;;;0.20;99.90;-1.00;98116;;;;568825;250;24120;-82
2024/01/03 06:26:40;;;;;;;5.93;4.30;;;0.10;99.90;-1.00;98112;;;;569065;250;24136;-82
2024/01/03 06:29:08;;;;;;;9.60;5.20;;;0.10;99.90;-1.00;98118;;;;569154;250;24126;-83
2024/01/03 06:31:39;;;;;;;10.87;4.60;;;0.10;99.90;-1.00;98112;;;;568939;250;24176;-84
2024/01/03 06:34:03;;;;;;;4.67;3.67;;;0.10;99.90;-1.00;98114;;;;568107;252;24124;-82
2024/01/03 06:36:31;;;;;;;6.27;4.00;;;0.10;99.90;-1.00;98113;;;;569111;250;24154;-83
2024/01/03 06:39:03;;;;;;;6.03;3.17;;;0.10;99.90;-1.00;98125;;;;560207;252;24110;-83
2024/01/03 06:41:27;;;;;;;6.17;4.23;;;0.10;99.90;-1.00;98107;;;;569957;247;25193;-81
2024/01/03 06:43:56;;;;;;;5.23;3.90;;;0.00;99.90;-1.10;98118;;;;569380;247;24150;-81
2024/01/03 06:46:27;;;;;;;5.37;3.57;;;0.00;99.90;-1.10;98119;;;;569182;250;24168;-82
2024/01/03 06:48:55;;;;;;;5.20;3.20;;;0.00;99.90;-1.00;98112;;;;569428;245;24111;-81
2024/01/03 06:51:23;;;;;;;4.10;3.23;;;0.00;99.90;-1.10;98114;;;;562417;250;24142;-81
2024/01/03 06:53:50;;;;;;;4.53;2.73;;;0.00;99.90;-1.10;98107;;;;569571;247;24124;-83
2024/01/03 06:56:24;;;;;;;1.20;0.97;;;0.00;99.90;-1.10;98140;;;;570747;250;24119;-81
2024/01/03 06:58:52;;;;;;;8.50;4.57;;;0.00;99.90;-1.10;98106;;;;570389;249;24156;-82
2024/01/03 07:01:25;;;;;;;4.87;3.10;;;0.00;99.90;-1.10;98128;;;;569283;252;24123;-82
2024/01/03 07:03:45;;;;;;;4.70;3.47;;;0.00;99.90;-1.10;98117;;;;559837;252;24138;-82
2024/01/03 07:06:14;;;;;;;3.90;2.67;;;0.00;99.90;-1.10;98119;;;;570109;250;24117;-80
2024/01/03 07:08:41;;;;;;;4.70;3.80;;;-0.10;99.90;-1.10;98107;;;;570033;250;24134;-82
2024/01/03 07:11:12;;;;;;;4.90;3.27;;;-0.10;99.90;-1.20;98108;;;;570611;247;24097;-81
2024/01/03 07:13:40;;;;;;;6.73;4.03;;;-0.10;99.90;-1.20;98122;;;;561956;241;24117;-81
2024/01/03 07:16:05;;;;;;;6.73;4.07;;;-0.10;99.90;-1.20;98116;;;;561580;252;24128;-81
2024/01/03 07:18:33;;;;;;;4.43;2.57;;;-0.10;99.90;-1.20;98112;;;;561833;252;24078;-79
2024/01/03 07:21:00;;;;;;;5.07;3.33;;;-0.10;99.90;-1.20;98102;;;;569829;250;24176;-81
2024/01/03 07:23:28;;;;;;;2.73;2.10;;;-0.10;99.90;-1.20;98105;;;;563512;250;24092;-80
2024/01/03 07:25:56;;;;;;;1.50;1.43;;;-0.10;99.90;-1.20;98103;;;;569354;246;24147;-81
2024/01/03 07:28:28;;;;;;;5.00;3.13;;;-0.10;99.90;-1.20;98107;;;;568904;246;24057;-81
2024/01/03 07:30:52;;;;;;;4.17;3.00;;;0.00;99.90;-1.20;98105;;;;559518;252;24092;-81
2024/01/03 07:33:20;;;;;;;4.27;2.63;;;-0.10;99.90;-1.20;98100;;;;568781;250;24165;-81
2024/01/03 07:35:49;;;;;;;4.90;3.27;;;-0.10;99.90;-1.20;98105;;;;569158;250;24092;-83
2024/01/03 07:38:17;;;;;;;5.43;3.20;;;-0.10;99.90;-1.20;98101;;;;568674;250;24068;-82
2024/01/03 07:40:45;;;;;;;3.93;3.07;;;-0.10;99.90;-1.20;98099;;;;568471;250;24075;-82
2024/01/03 07:43:13;;;;;;;5.67;4.03;;;-0.10;99.90;-1.20;98105;;;;569047;250;24098;-83
2024/01/03 07:45:41;;;;;;;2.90;2.60;;;-0.10;99.90;-1.20;98108;;;;568536;250;24067;-84
2024/01/03 07:48:10;;;;;;;4.70;2.67;;;-0.10;99.90;-1.20;98104;;;;568488;246;24082;-83
2024/01/03 07:50:38;;;;;;;3.00;2.43;;;-0.10;99.90;-1.20;98105;;;;567902;246;24163;-82
2024/01/03 07:53:07;;;;;;;3.83;3.30;;;-0.10;99.90;-1.20;98096;;;;568443;250;24080;-83
2024/01/03 07:55:36;;;;;;;3.27;2.87;;;-0.10;99.90;-1.20;98097;;;;568335;250;24075;-82
2024/01/03 07:58:05;;;;;;;3.70;3.17;;;-0.10;99.90;-1.20;98099;;;;567610;252;25121;-82
2024/01/03 08:00:30;;;;;;;2.30;2.10;;;-0.10;99.90;-1.20;98096;;;;559533;252;24091;-82
2024/01/03 08:03:08;;;;;;;3.20;2.70;;;-0.10;99.90;-1.20;98107;;;;568243;246;24090;-82
2024/01/03 08:05:31;;;;;;;3.23;1.80;;;-0.10;99.90;-1.20;98095;;;;567518;247;24096;-82
2024/01/03 08:07:56;;;;;;;4.17;3.37;;;-0.10;99.90;-1.20;98103;;;;560616;252;24089;-82
2024/01/03 08:10:25;;;;;;;3.45;3.15;;;-0.10;99.90;-1.20;98100;;;;564988;249;35249;-81
2024/01/03 08:12:53;;;;;;;4.77;3.10;;;-0.10;99.90;-1.20;98092;;;;569566;249;24078;-81
2024/01/03 08:15:21;;;;;;;3.03;1.50;;;-0.10;99.90;-1.10;98085;;;;561273;250;24095;-80
2024/01/03 08:17:48;;;;;;;5.03;1.90;;;-0.10;99.90;-1.10;98102;;;;568814;246;24088;-81
2024/01/03 08:20:17;;;;;;;2.33;1.70;;;0.00;99.90;-1.10;98099;;;;569593;250;24073;-82
2024/01/03 08:22:46;;;;;;;3.37;2.40;;;-0.10;99.90;-1.10;98089;;;;568675;250;24093;-80
2024/01/03 08:25:13;;;;;;;5.87;4.90;;;0.00;99.90;-1.10;98098;;;;568769;250;24077;-81
2024/01/03 08:27:41;;;;;;;4.67;2.70;;;0.00;99.90;-1.10;98100;;;;558786;252;24099;-81
2024/01/03 08:30:12;;;;;;;6.00;4.77;;;0.00;99.90;-1.10;98089;;;;559122;251;24104;-81
2024/01/03 08:32:40;;;;;;;3.50;2.60;;;-0.10;99.90;-1.20;98090;;;;568203;245;24104;-81
2024/01/03 08:35:08;;;;;;;2.43;1.97;;;-0.10;99.90;-1.20;98100;;;;559766;252;24086;-82
2024/01/03 08:37:32;;;;;;;3.97;2.77;;;-0.10;99.90;-1.20;98096;;;;559604;252;24104;-80
2024/01/03 08:40:01;;;;;;;1.07;1.00;;;-0.10;99.90;-1.20;98099;;;;568803;250;24142;-80
2024/01/03 08:42:31;;;;;;;2.50;2.03;;;-0.10;99.90;-1.10;98096;;;;562474;252;24093;-81
2024/01/03 08:45:00;;;;;;;4.47;2.40;;;0.00;99.90;-1.10;98098;;;;568514;250;24093;-80
2024/01/03 08:47:28;;;;;;;4.57;3.20;;;0.00;99.90;-1.10;98108;;;;558818;252;24078;-80
2024/01/03 08:49:56;;;;;;;3.67;2.40;;;-0.10;99.90;-1.10;98111;;;;568956;250;24097;-81
2024/01/03 08:52:28;;;;;;;1.10;1.10;;;-0.10;99.90;-1.10;98102;;;;568944;250;25132;-81
2024/01/03 08:54:56;;;;;;;4.57;3.53;;;0.00;99.90;-1.10;98104;;;;568566;250;24105;-81
2024/01/03 08:57:23;;;;;;;3.80;3.00;;;0.00;99.90;-1.10;98106;;;;567974;246;24099;-81
2024/01/03 08:59:51;;;;;;;3.80;3.10;;;0.00;99.90;-1.10;98106;;;;568040;250;24097;-81
2024/01/03 09:02:20;;;;;;;1.97;1.83;;;-0.10;99.90;-1.20;98100;;;;568646;250;24085;-80
2024/01/03 09:04:50;;;;;;;1.30;1.17;;;-0.10;99.90;-1.10;98116;;;;568582;250;24108;-80
2024/01/03 09:07:17;;;;;;;1.10;1.00;;;0.00;99.90;-1.10;98117;;;;568897;250;24131;-80
2024/01/03 09:09:45;;;;;;;4.70;3.03;;;0.00;99.90;-1.10;98115;;;;567996;246;24069;-80
2024/01/03 09:12:13;;;;;;;3.80;2.50;;;0.00;99.90;-1.10;98119;;;;559767;252;24059;-80
2024/01/03 09:14:42;;;;;;;1.10;0.87;;;0.00;99.90;-1.10;98123;;;;568640;250;24076;-80
2024/01/03 09:17:09;;;;;;;4.10;3.63;;;0.00;99.90;-1.10;98112;;;;560482;251;24099;-80
2024/01/03 09:19:39;;;;;;;5.93;3.93;;;0.00;99.90;-1.10;98115;;;;569717;250;24096;-79
2024/01/03 09:22:05;;;;;;;2.33;1.57;;;0.00;99.90;-1.10;98117;;;;560983;250;24090;-80
2024/01/03 09:24:33;;;;;;;2.20;1.80;;;0.00;99.90;-1.10;98115;;;;562541;252;24127;-78
2024/01/03 09:27:00;;;;;;;3.23;2.83;;;0.00;99.90;-1.10;98113;;;;568747;250;24093;-80
2024/01/03 09:29:29;;;;;;;5.33;3.27;;;0.00;99.90;-1.00;98112;;;;569025;246;24102;-78
2024/01/03 09:31:58;;;;;;;6.30;3.83;;;0.00;99.90;-1.00;98116;;;;568755;246;24072;-79
2024/01/03 09:34:24;;;;;;;1.30;1.20;;;0.00;99.90;-1.10;98112;;;;569125;250;24097;-81
2024/01/03 09:36:54;;;;;;;3.30;2.90;;;0.00;99.90;-1.00;98111;;;;568793;250;24111;-80
2024/01/03 09:39:22;;;;;;;8.77;5.23;;;0.10;99.90;-1.10;98119;;;;562706;246;24091;-79
2024/01/03 09:41:50;;;;;;;5.27;4.17;;;0.00;99.90;-1.10;98107;;;;568519;250;24078;-80
2024/01/03 09:44:19;;;;;;;1.03;0.90;;;0.00;99.90;-1.10;98115;;;;568419;250;24098;-79
2024/01/03 09:46:49;;;;;;;2.10;1.87;;;0.00;99.90;-1.10;98113;;;;568953;250;25119;-79
2024/01/03 09:49:18;;;;;;;5.60;3.90;;;0.00;99.90;-1.00;98111;;;;569727;252;24081;-81
2024/01/03 09:51:43;;;;;;;1.90;1.70;;;0.00;99.90;-1.10;98118;;;;569957;251;24090;-77
2024/01/03 09:54:14;;;;;;;6.90;4.53;;;0.00;99.90;-1.10;98118;;;;569962;250;24061;-78
2024/01/03 09:56:41;;;;;;;4.33;3.00;;;0.00;99.90;-1.10;98100;;;;560554;252;24092;-77
2024/01/03 09:59:06;;;;;;;1.50;1.30;;;0.00;99.90;-1.00;98098;;;;557842;252;24099;-78
2024/01/03 10:01:34;;;;;;;5.13;3.47;;;0.00;99.90;-1.00;98097;;;;568553;246;24082;-78
2024/01/03 10:04:02;;;;;;;2.30;2.10;;;0.10;99.90;-0.90;98103;;;;567725;250;24079;-79
2024/01/03 10:06:31;;;;;;;10.87;5.57;;;0.10;99.90;-0.90;98102;;;;568579;250;25149;-80
2024/01/03 10:09:02;;;;;;;1.43;1.13;;;0.20;99.90;-0.90;98112;;;;562031;252;24077;-79
2024/01/03 10:11:26;;;;;;;3.40;3.10;;;0.20;99.90;-0.90;98106;;;;561732;250;24082;-79
2024/01/03 10:13:55;;;;;;;1.67;1.57;;;0.30;99.90;-0.90;98107;;;;559533;252;24165;-79
2024/01/03 10:16:25;;;;;;;6.83;4.73;;;0.30;99.90;-0.80;98100;;;;568106;250;24098;-78
2024/01/03 10:19:11;;;;;;;2.07;1.77;;;0.30;99.90;-0.90;98095;;;;562239;252;24086;-79
2024/01/03 10:21:43;;;;;;;7.17;4.17;;;0.20;99.90;-0.80;98100;;;;567554;246;24089;-78
2024/01/03 10:24:10;;;;;;;10.70;5.53;;;0.30;99.90;-0.80;98096;;;;558820;252;24087;-81
2024/01/03 10:26:35;;;;;;;8.37;5.20;;;0.30;99.90;-0.90;98094;;;;559838;252;24105;-77
2024/01/03 10:29:18;;;;;;;2.00;1.87;;;0.20;99.90;-0.90;98106;;;;568334;250;24088;-78
2024/01/03 10:31:43;;;;;;;2.50;2.23;;;0.30;99.90;-0.90;98101;;;;562960;252;24232;-78
2024/01/03 10:34:15;;;;;;;10.57;6.07;;;0.20;99.90;-0.90;98095;;;;560973;252;24077;-78
2024/01/03 10:36:40;;;;;;;4.30;3.90;;;0.20;99.90;-1.00;98094;;;;568988;249;24114;-78
2024/01/03 10:39:08;;;;;;;4.40;1.93;;;0.10;99.90;-0.90;98097;;;;560444;252;24069;-79
2024/01/03 10:41:36;;;;;;;2.60;2.03;;;0.20;99.90;-0.90;98103;;;;568756;250;24097;-79
2024/01/03 10:44:03;;;;;;;3.40;2.30;;;0.20;99.90;-0.90;98092;;;;568105;252;24096;-77
2024/01/03 10:46:31;;;;;;;1.80;1.60;;;0.20;99.90;-0.80;98088;;;;559769;252;24134;-77
2024/01/03 10:49:01;;;;;;;3.47;2.40;;;0.30;99.90;-0.70;98092;;;;568880;250;24057;-78
2024/01/03 10:51:27;;;;;;;2.20;1.53;;;0.40;99.90;-0.70;98089;;;;568311;250;24081;-76
2024/01/03 10:53:58;;;;;;;2.83;2.03;;;0.50;99.90;-0.60;98075;;;;562553;252;24110;-77
2024/01/03 10:56:23;;;;;;;3.33;2.60;;;0.50;99.90;-0.60;98092;;;;560080;250;24134;-76
2024/01/03 10:58:54;;;;;;;10.60;6.50;;;0.50;99.90;-0.60;98081;;;;568627;250;24082;-76
2024/01/03 11:01:28;;;;;;;2.70;1.73;;;0.60;99.90;-0.60;98077;;;;561784;249;24097;-76
2024/01/03 11:04:16;;;;;;;4.00;3.20;;;0.50;99.90;-0.60;98078;;;;562583;252;24081;-76
2024/01/03 11:06:58;;;;;;;3.80;3.40;;;0.50;99.90;-0.70;98078;;;;559969;252;24100;-78
2024/01/03 11:09:27;;;;;;;3.27;2.50;;;0.50;99.90;-0.70;98085;;;;559104;252;24100;-77
2024/01/03 11:12:10;;;;;;;5.90;4.80;;;0.50;99.90;-0.70;98082;;;;568358;249;24085;-78
2024/01/03 11:14:35;;;;;;;6.37;3.97;;;0.40;99.90;-0.80;98074;;;;559450;252;24102;-81
2024/01/03 11:17:05;;;;;;;7.63;5.60;;;0.40;99.90;-0.80;98068;;;;568661;250;24148;-76
2024/01/03 11:19:31;;;;;;;7.93;4.30;;;0.30;99.90;-0.90;98058;;;;567879;252;24099;-80
2024/01/03 11:22:02;;;;;;;6.13;3.30;;;0.20;99.90;-1.00;98079;;;;567894;252;24152;-79